Bender Springs, Arizona (BMGR) Weather observations

Data are for 10 minute period ending at time listed.
 Day   Time   Solar   Ave.   Ave.  Ave.  Vector  Max.   Total    
  of    of     Rad.   Air    Rel.  Wind   Wind   Wind  Precip.   
Year   Day            Temp.  Hum.  Speed  Dir.   Gust            
2026   (MST)  Kw/m2    F      %     mph   deg.    mph    in.     
-----------------------------------------------------------------
 125   12:35   1.08   64.2    36   12.8    36    20.0    0.00 
 125   12:40   1.01   64.1    36    6.8    28    13.8    0.00 
 125   12:45   0.81   63.6    37    9.8    29    19.4    0.00 
 125   12:50   1.02   63.6    37    9.8    51    17.7    0.00 
 125   12:55   1.04   64.2    36   12.4    28    18.3    0.00 
 125   13:00   1.04   64.0    36    8.6    28    13.8    0.00 
 125   13:05   0.94   64.1    36    8.9    38    16.6    0.00 
 125   13:10   1.03   64.3    36   10.1    37    14.9    0.00 
 125   13:15   0.81   64.2    36   11.3    38    22.2    0.00 
 125   13:20   1.02   64.3    36   11.7    59    18.9    0.00 
 125   13:25   0.94   64.9    35   11.9    36    23.9    0.00 
 125   13:30   0.50   64.2    36   11.1    50    16.6    0.00 
 125   13:35   0.92   63.1    37   12.5    48    18.3    0.00 
 125   13:40   0.29   63.4    37    9.8    49    16.6    0.00 
 125   13:45   0.37   63.4    37    9.6    34    18.3    0.00 
 125   13:50   0.72   63.4    36   11.0    52    20.5    0.00 
 125   13:55   0.80   65.0    35   11.8    39    20.0    0.00 
 125   14:00   0.87   65.1    35   11.8    31    21.1    0.00 
 125   14:05   0.97   65.0    35   14.9    27    23.9    0.00 
 125   14:10   0.75   64.8    36    9.8    32    23.3    0.00 
 125   14:15   0.97   64.5    36    8.2    35    14.9    0.00 
 125   14:20   0.78   65.3    34   11.5    35    23.3    0.00 
 125   14:25   0.53   65.2    34   11.5    33    21.6    0.00 
 125   14:30   0.26   65.0    34    6.9    42    17.7    0.00 
 125   14:35   0.45   64.4    34   14.2    57    25.6    0.00 
 125   14:40   0.94   65.4    34   10.4    47    25.6    0.00 
 125   14:45   0.87   66.1    33   14.0    32    21.6    0.00 
 125   14:50   0.87   66.4    32   11.2    42    23.9    0.00 
 125   14:55   0.84   65.8    33   12.4    40    26.1    0.00 
 125   15:00   0.24   65.9    32    9.2    26    16.6    0.00 
 125   15:05   0.37   63.9    34   13.2    53    23.9    0.00 
 125   15:10   0.69   65.0    33   11.5    47    21.1    0.00 
 125   15:15   0.82   65.1    33   15.3    50    26.7    0.00 
 125   15:20   0.79   66.7    31   12.0    45    22.2    0.00 
 125   15:25   0.47   66.4    32   11.1    43    20.0    0.00 
 125   15:30   0.72   65.9    32   14.3    60    28.4    0.00 
 125   15:35   0.71   65.9    32    9.4    49    17.7    0.00 
 125   15:40   0.71   66.5    30   15.6    32    25.0    0.00 
 125   15:45   0.70   66.6    30   12.5    24    24.4    0.00 
 125   15:50   0.51   65.9    31   14.1    47    22.8    0.00 
 125   15:55   0.52   64.6    32   11.4    44    22.8    0.00 
 125   16:00   0.74   65.9    30   11.3    46    21.1    0.00 
 125   16:05   0.61   66.4    30   13.0    16    19.4    0.00 
 125   16:10   0.51   65.7    30   12.6    19    23.3    0.00 
 125   16:15   0.25   65.8    30   13.0    38    21.1    0.00 
 125   16:20   0.14   64.2    32   12.2    35    22.2    0.00 
 125   16:25   0.13   64.3    32    9.4    50    23.9    0.00 
 125   16:30   0.37   64.2    32   13.1    54    24.4    0.00 
 125   16:35   0.43   64.8    31   11.6    57    19.4    0.00 
 125   16:40   0.32   64.7    31   12.1    48    19.4    0.00 
 125   16:45   0.33   65.6    30   10.8    25    16.6    0.00 
 125   16:50   0.15   65.3    30    9.9    37    17.2    0.00 
 125   16:55   0.17   64.2    31   13.5    26    21.6    0.00 
 125   17:00   0.34   64.5    31    9.6    25    17.2    0.00 
 125   17:05   0.34   64.7    31    8.5    59    14.4    0.00 
 125   17:10   0.17   64.8    31    8.9    57    14.4    0.00 
 125   17:15   0.20   63.8    32   11.1    62    16.0    0.00 
 125   17:20   0.36   64.7    32   12.4    59    19.4    0.00 
 125   17:25   0.31   65.0    31   11.7    44    21.1    0.00 
 125   17:30   0.20   64.6    32   11.3    33    20.0    0.00 
 125   17:35   0.17   64.5    32   15.3    31    22.2    0.00 
 125   17:40   0.31   64.5    32    9.3    42    14.9    0.00 
 125   17:45   0.23   64.8    32   12.1    52    21.6    0.00 
 125   17:50   0.19   63.9    32   15.5    57    25.6    0.00 
 125   17:55   0.12   63.5    33   13.1    47    20.0    0.00 
 125   18:00   0.21   63.8    32   13.7    53    23.3    0.00 
 125   18:05   0.20   63.8    33   16.7    58    29.5    0.00 
 125   18:10   0.19   63.2    34   17.6    53    25.6    0.00 
 125   18:15   0.16   63.7    33   10.4    60    20.0    0.00 
 125   18:20   0.15   63.7    33   11.9    56    21.1    0.00 
 125   18:25   0.13   64.0    33   13.0    49    23.9    0.00 
 125   18:30   0.11   63.6    33   12.1    55    19.4    0.00 
 125   18:35   0.10   62.9    34   15.5    55    28.9    0.00 
 125   18:40   0.08   62.4    35   14.4    56    22.8    0.00 
 125   18:45   0.07   62.5    35   12.2    49    20.0    0.00 
 125   18:50   0.06   62.5    35   10.7    49    18.3    0.00 
 125   18:55   0.05   62.2    35   12.6    54    24.4    0.00 
 125   19:00   0.03   61.7    36   14.4    54    21.1    0.00 
 125   19:05   0.02   61.6    36   15.1    52    21.6    0.00 
 125   19:10   0.02   61.4    36    9.8    48    21.1    0.00 
 125   19:15   0.01   61.3    36    8.1    42    13.8    0.00 
 125   19:20   0.00   61.0    36    8.7    52    13.3    0.00 
 125   19:25   0.00   60.8    36   10.6    53    16.0    0.00 
 125   19:30   0.00   60.7    36   13.5    46    22.8    0.00 
 125   19:35   0.00   60.4    36   16.0    49    25.0    0.00 
 125   19:40   0.00   60.3    35   16.1    52    22.2    0.00 
 125   19:45   0.00   60.2    35   15.3    56    25.0    0.00 
 125   19:50   0.00   60.1    35   13.3    57    21.1    0.00 
 125   19:55   0.00   60.0    35   14.9    60    21.6    0.00 
 125   20:00   0.00   59.9    35   13.1    59    19.4    0.00 
 125   20:05   0.00   59.9    35   14.3    56    20.0    0.00 
 125   20:10   0.00   59.8    35   14.0    58    21.6    0.00 
 125   20:15   0.00   59.8    35   15.3    50    22.8    0.00 
 125   20:20   0.00   59.7    35   14.0    52    21.1    0.00 
 125   20:25   0.00   59.7    35   14.6    52    20.5    0.00 
 125   20:30   0.00   59.6    35   13.3    54    19.4    0.00 
 125   20:35   0.00   59.5    35   13.4    55    21.1    0.00 
 125   20:40   0.00   59.3    36   12.9    51    18.9    0.00 
 125   20:45   0.00   59.1    36   11.9    47    17.2    0.00 
 125   20:50   0.00   59.0    36   10.8    49    14.9    0.00 
 125   20:55   0.00   58.9    37   10.5    42    17.2    0.00 
 125   21:00   0.00   58.8    37   10.8    52    13.8    0.00 
 125   21:05   0.00   58.7    37   10.6    49    18.3    0.00 
 125   21:10   0.00   58.7    37   11.9    52    18.3    0.00 
 125   21:15   0.00   58.6    37   10.7    42    15.5    0.00 
 125   21:20   0.00   58.5    37   10.5    47    15.5    0.00 
 125   21:25   0.00   58.4    38    8.9    64    13.8    0.00 
 125   21:30   0.00   58.3    38    9.7    54    16.0    0.00 
 125   21:35   0.00   58.1    38    5.9    54     9.3    0.00 
 125   21:40   0.00   57.9    38    6.2    58    10.5    0.00 
 125   21:45   0.00   57.9    38    8.4    66    13.8    0.00 
 125   21:50   0.00   57.8    38    6.1    60     9.3    0.00 
 125   21:55   0.00   57.7    38    6.5    50     8.8    0.00 
 125   22:00   0.00   57.7    38    6.5    59     9.9    0.00 
 125   22:05   0.00   57.6    39    7.4    60    11.6    0.00 
 125   22:10   0.00   57.5    39    5.7    56     8.2    0.00 
 125   22:15   0.00   57.5    39    6.4    58    12.1    0.00 
 125   22:20   0.00   57.6    39    8.9    57    13.8    0.00 
 125   22:25   0.00   57.5    39    9.1    56    11.6    0.00 
 125   22:30   0.00   57.3    39    8.5    57    12.7    0.00 
 125   22:35   0.00   57.2    39    9.5    60    14.4    0.00 
 125   22:40   0.00   57.2    39    8.4    58    11.6    0.00 
 125   22:45   0.00   57.1    40    8.2    56    10.5    0.00 
 125   22:50   0.00   57.0    40    6.9    56     9.3    0.00 
 125   22:55   0.00   56.8    40    7.1    51    12.1    0.00 
 125   23:00   0.00   56.8    40    7.8    50    12.7    0.00 
 125   23:05   0.00   56.7    40    7.8    56    11.6    0.00 
 125   23:10   0.00   56.7    41    9.0    60    12.1    0.00 
 125   23:15   0.00   56.7    41    9.0    52    12.7    0.00 
 125   23:20   0.00   56.7    41    9.8    50    13.8    0.00 
 125   23:25   0.00   56.7    41    8.5    51    11.0    0.00 
 125   23:30   0.00   56.5    41    8.6    49    12.7    0.00 
 125   23:35   0.00   56.4    41    9.1    46    11.6    0.00 
 125   23:40   0.00   56.3    42    9.0    49    13.3    0.00 
 125   23:45   0.00   56.1    42    7.0    51    10.5    0.00 
 125   23:50   0.00   55.9    42    4.6    42     7.7    0.00 
 125   23:55   0.00   55.6    42    5.4    45    10.5    0.00 
 126    0:00   0.00   55.7    42    7.3    45    10.5    0.00 
 126    0:05   0.00   55.6    42    6.7    43    10.5    0.00 
 126    0:10   0.00   55.5    42    6.7    45    11.0    0.00 
 126    0:15   0.00   55.5    42    5.8    36     8.8    0.00 
 126    0:20   0.00   55.4    43    6.9    39    10.5    0.00 
 126    0:25   0.00   55.3    43    7.0    38    12.1    0.00 
 126    0:30   0.00   55.2    43    7.3    40    12.7    0.00 
 126    0:35   0.00   55.0    43    6.3    36    12.1    0.00 
 126    0:40   0.00   55.0    43    7.4    34    12.1    0.00 
 126    0:45   0.00   55.0    44    7.5    39    12.7    0.00 
 126    0:50   0.00   54.8    44    8.2    35    12.7    0.00 
 126    0:55   0.00   54.7    44    7.1    33    11.0    0.00 
 126    1:00   0.00   54.3    44    7.7    37    10.5    0.00 
 126    1:05   0.00   54.3    44   10.2    37    13.3    0.00 
 126    1:10   0.00   54.3    44    8.9    37    13.3    0.00 
 126    1:15   0.00   54.3    45    8.3    33    12.1    0.00 
 126    1:20   0.00   54.3    45    8.9    40    12.7    0.00 
 126    1:25   0.00   54.3    45    9.4    37    13.3    0.00 
 126    1:30   0.00   54.2    45    7.7    35    11.6    0.00 
 126    1:35   0.00   54.2    46    8.1    33    11.6    0.00 
 126    1:40   0.00   54.4    46    8.5    35    12.7    0.00 
 126    1:45   0.00   54.2    46    7.7    37    12.1    0.00 
 126    1:50   0.00   53.9    47    6.9    36    10.5    0.00 
 126    1:55   0.00   53.8    47    8.5    37    12.1    0.00 
 126    2:00   0.00   53.8    47    8.5    38    12.1    0.00 
 126    2:05   0.00   53.8    48    8.6    37    12.1    0.00 
 126    2:10   0.00   54.0    49    9.5    33    13.3    0.00 
 126    2:15   0.00   54.1    49    8.5    29    13.3    0.00 
 126    2:20   0.00   54.1    50    9.6    34    12.7    0.00 
 126    2:25   0.00   53.8    49   10.2    34    13.3    0.00 
 126    2:30   0.00   53.5    50    8.5    32    11.6    0.00 
 126    2:35   0.00   53.5    50    8.6    29    12.1    0.00 
 126    2:40   0.00   53.6    50    8.6    30    12.1    0.00 
 126    2:45   0.00   53.5    51    7.9    33    11.6    0.00 
 126    2:50   0.00   53.2    51    7.4    32    12.1    0.00 
 126    2:55   0.00   53.2    51    8.5    28    12.7    0.00 
 126    3:00   0.00   53.3    51    8.9    28    12.7    0.00 
 126    3:05   0.00   53.4    50    9.8    31    13.8    0.00 
 126    3:10   0.00   53.3    50    8.5    25    12.1    0.00 
 126    3:15   0.00   53.3    50    8.0    20    10.5    0.00 
 126    3:20   0.00   53.2    50    7.4    25    12.1    0.00 
 126    3:25   0.00   53.1    49    8.4    28    11.6    0.00 
 126    3:30   0.00   53.1    49    9.1    28    12.7    0.00 
 126    3:35   0.00   53.0    49    8.1    23     9.9    0.00 
 126    3:40   0.00   52.9    49    8.2    25    10.5    0.00 
 126    3:45   0.00   52.8    50    7.7    23    10.5    0.00 
 126    3:50   0.00   52.6    50    7.2    21    10.5    0.00 
 126    3:55   0.00   52.8    50    7.7    22    11.0    0.00 
 126    4:00   0.00   52.8    49    7.4    26     9.9    0.00 
 126    4:05   0.00   52.9    49    8.3    23    10.5    0.00 
 126    4:10   0.00   52.8    49    7.5    25    10.5    0.00 
 126    4:15   0.00   52.8    49    7.9    23    10.5    0.00 
 126    4:20   0.00   52.9    49    8.2    25    11.6    0.00 
 126    4:25   0.00   52.8    49    7.6    24    11.0    0.00 
 126    4:30   0.00   52.7    49    8.2    23    12.1    0.00 
 126    4:35   0.00   52.8    49    8.0    24    11.0    0.00 
 126    4:40   0.00   52.8    49    8.9    28    11.0    0.00 
 126    4:45   0.00   52.8    49    8.0    26    11.6    0.00 
 126    4:50   0.00   52.7    49    7.4    22    10.5    0.00 
 126    4:55   0.00   52.8    49    7.4    22     9.9    0.00 
 126    5:00   0.00   52.8    49    7.8    23    10.5    0.00 
 126    5:05   0.00   52.9    49    6.8    22     8.8    0.00 
 126    5:10   0.00   52.8    49    7.2    24     9.3    0.00 
 126    5:15   0.00   52.8    49    6.9    22     9.9    0.00 
 126    5:20   0.00   53.0    49    7.3    27    11.0    0.00 
 126    5:25   0.00   52.7    49    6.6    28     8.8    0.00 
 126    5:30   0.00   52.6    49    8.4    31    11.6    0.00 
 126    5:35   0.00   52.8    49    7.0    28     8.8    0.00 
 126    5:40   0.01   52.6    49    6.8    31     9.3    0.00 
 126    5:45   0.01   52.9    49    6.3    29     8.8    0.00 
 126    5:50   0.02   52.9    48    6.5    26     9.3    0.00 
 126    5:55   0.03   53.0    48    6.6    30     8.8    0.00 
 126    6:00   0.05   53.3    48    6.7    32     9.3    0.00 
 126    6:05   0.06   53.4    48    6.2    30     8.2    0.00 
 126    6:10   0.07   53.5    47    6.5    35    10.5    0.00 
 126    6:15   0.09   53.9    47    6.4    34     9.3    0.00 
 126    6:20   0.10   54.0    47    7.7    38    11.6    0.00 
 126    6:25   0.11   54.1    46    5.4    32     8.2    0.00 
 126    6:30   0.13   54.0    46    6.2    37    11.0    0.00 
 126    6:35   0.15   54.4    46    7.2    36     9.9    0.00 
 126    6:40   0.16   54.7    46    4.8    25     7.7    0.00 
 126    6:45   0.18   54.8    45    5.5    37     9.9    0.00 
 126    6:50   0.19   54.9    45    5.7    29     8.8    0.00 
 126    6:55   0.21   55.1    45    4.7    30     9.3    0.00 
 126    7:00   0.23   55.2    45    5.5    27     8.2    0.00 
 126    7:05   0.25   55.3    45    3.8    24     7.1    0.00 
 126    7:10   0.26   55.4    45    3.9    29     6.0    0.00 
 126    7:15   0.28   55.5    44    3.9    33     6.0    0.00 
 126    7:20   0.30   55.9    44    1.9    29     5.4    0.00 
 126    7:25   0.32   56.1    44    2.4    44     7.7    0.00 
 126    7:30   0.34   56.3    43    2.9    51     8.2    0.00 
 126    7:35   0.35   56.5    43    3.0    39     7.1    0.00 
 126    7:40   0.37   56.8    43    3.5    39     7.1    0.00 
 126    7:45   0.39   56.9    42    3.4    43     6.5    0.00 
 126    7:50   0.41   57.3    42    2.6    42     6.0    0.00 
 126    7:55   0.42   57.5    41    3.6    52     6.0    0.00 
 126    8:00   0.44   57.8    41    2.7    50     6.5    0.00 
 126    8:05   0.46   58.2    40    3.8    48     6.5    0.00 
 126    8:10   0.48   58.6    40    2.2    42     6.5    0.00 
 126    8:15   0.49   58.9    40    3.7    47     7.1    0.00 
 126    8:20   0.51   59.3    39    2.3    32     6.0    0.00 
 126    8:25   0.53   59.3    39    6.0    43     9.9    0.00 
 126    8:30   0.54   59.4    39    5.1    46     8.8    0.00 
 126    8:35   0.56   59.7    39    4.0    46     7.1    0.00 
 126    8:40   0.58   60.2    38    6.3    55     9.9    0.00 
 126    8:45   0.59   60.1    39    4.7    58     9.3    0.00 
 126    8:50   0.61   60.4    38    3.2    58     7.1    0.00 
 126    8:55   0.62   60.8    38    5.2    39     8.8    0.00 
 126    9:00   0.64   60.8    38    5.8    26    11.6    0.00 
 126    9:05   0.65   60.9    37    6.7    38    11.6    0.00 
 126    9:10   0.67   60.5    38    7.5    46    13.3    0.00 
 126    9:15   0.68   60.8    37    7.6    44    11.6    0.00 
 126    9:20   0.70   61.2    37    6.9    39    11.6    0.00 
 126    9:25   0.71   61.2    37    8.0    46    11.6    0.00 
 126    9:30   0.73   61.4    37    4.2    44     9.3    0.00 
 126    9:35   0.74   62.3    36    5.0    46     8.8    0.00 
 126    9:40   0.75   61.8    36    2.7    60     8.8    0.00 
 126    9:45   0.77   62.9    35    3.6    45     8.2    0.00 
 126    9:50   0.78   63.0    34    3.2    19     8.2    0.00 
 126    9:55   0.80   63.9    33    2.7    43     7.7    0.00 
 126   10:00   0.81   63.7    33    3.3   191     9.3    0.00 
 126   10:05   0.82   64.7    32    2.1   115     8.8    0.00 
 126   10:10   0.84   65.1    32    1.1   132     5.4    0.00 
 126   10:15   0.85   64.8    32    3.2   159     9.9    0.00 
 126   10:20   0.86   64.3    33    1.4    59     4.9    0.00 
 126   10:25   0.87   65.0    32    4.1   172     8.2    0.00 
 126   10:30   0.88   65.8    31    1.6    91     7.1    0.00 
 126   10:35   0.89   66.3    30    6.3    69    11.6    0.00 
 126   10:40   0.90   64.1    32    5.1   119    11.6    0.00 
 126   10:45   0.91   64.7    32    2.1   169     7.7    0.00 
 126   10:50   0.92   64.8    31    4.4   171     7.1    0.00 
 126   10:55   0.93   64.1    32    4.3    97    12.1    0.00 
 126   11:00   0.94   66.4    30    4.3    80    12.7    0.00 
 126   11:05   0.94   66.1    30    3.7    68     7.7    0.00 
 126   11:10   0.95   66.2    30    1.8    93     7.1    0.00 
 126   11:15   0.96   67.5    28    3.2    80     8.2    0.00 
 126   11:20   0.96   65.6    30    2.5   109    10.5    0.00 
 126   11:25   0.97   65.4    30    1.0   290     6.0    0.00 
 126   11:30   0.98   67.6    28    2.6   126     7.7    0.00 
 126   11:35   0.98   69.2    26    4.8   113    10.5    0.00 
 126   11:40   0.99   68.5    26    3.8   130     9.3    0.00 
 126   11:45   0.99   67.6    26    3.7   167     7.1    0.00 
 126   11:50   0.99   67.3    27    2.9   190     8.2    0.00 
 126   11:55   1.00   67.9    27    1.8    50     7.1    0.00 
 126   12:00   1.00   69.2    26    2.6   111     8.2    0.00 
 126   12:05   1.00   67.8    27    4.1   158     9.9    0.00 
 126   12:10   1.00   68.6    26    1.9   178     5.4    0.00 
 126   12:15   1.00   68.1    27    2.4   172     6.5    0.00 
 126   12:20   1.00   68.6    27    5.1    34     9.9    0.00 
 126   12:25   1.00   68.4    27    3.0    39     7.1    0.00 
 126   12:30   1.00   68.9    26    2.6    64     6.5    0.00 

Return to Bender Springs graphs page.


Western Regional Climate Center,wrcc@dri.edu